Time;durP1;ratioP1;P1;durP2;ratioP2;P2;SDS_P1;SDS_P2;PMS_P1;PMS_P2;Temp;Humidity;BMP_temperature;BMP_pressure;BME280_temperature;BME280_humidity;BME280_pressure;Samples;Min_cycle;Max_cycle;Signal;HPM_P1;HPM_P2
2021/11/30 00:00:14;;;;;;;40.83;36.38;;;;;;;;;;5028807;28;20480;-58
2021/11/30 00:02:39;;;;;;;46.08;33.13;;;;;;;;;;5046367;28;20013;-58
2021/11/30 00:05:06;;;;;;;46.88;33.15;;;;;;;;;;5045622;28;20109;-58
2021/11/30 00:07:32;;;;;;;42.95;34.85;;;;;;;;;;5046665;28;20040;-59
2021/11/30 00:12:25;;;;;;;57.78;39.53;;;;;;;;;;5045595;28;20075;-59
2021/11/30 00:14:52;;;;;;;55.28;37.20;;;;;;;;;;5044708;28;20727;-58
2021/11/30 00:17:18;;;;;;;40.65;34.65;;;;;;;;;;5043387;28;20051;-58
2021/11/30 00:19:45;;;;;;;47.25;35.97;;;;;;;;;;5046673;28;20484;-59
2021/11/30 00:22:11;;;;;;;41.15;36.50;;;;;;;;;;5046756;28;20109;-58
2021/11/30 00:24:37;;;;;;;46.03;36.15;;;;;;;;;;5045901;28;20048;-58
2021/11/30 00:27:05;;;;;;;39.72;34.35;;;;;;;;;;5045450;28;20523;-58
2021/11/30 00:29:30;;;;;;;49.28;35.97;;;;;;;;;;5045146;28;20071;-58
2021/11/30 00:31:56;;;;;;;40.60;32.92;;;;;;;;;;5045487;28;20060;-58
2021/11/30 00:34:21;;;;;;;27.77;24.77;;;;;;;;;;5045622;28;20441;-58
2021/11/30 00:36:46;;;;;;;33.22;22.02;;;;;;;;;;5045376;28;20025;-58
2021/11/30 00:39:12;;;;;;;32.97;24.65;;;;;;;;;;5043460;28;20028;-58
2021/11/30 00:41:38;;;;;;;18.75;15.95;;;;;;;;;;5045295;28;20019;-58
2021/11/30 00:44:04;;;;;;;23.77;14.52;;;;;;;;;;5046045;28;20040;-58
2021/11/30 00:46:39;;;;;;;14.02;12.02;;;;;;;;;;5043954;28;20371;-58
2021/11/30 00:49:06;;;;;;;16.65;13.68;;;;;;;;;;5045147;28;20028;-58
2021/11/30 00:51:33;;;;;;;19.05;14.18;;;;;;;;;;5044717;28;20041;-59
2021/11/30 00:53:58;;;;;;;29.58;13.55;;;;;;;;;;5046401;28;20179;-58
2021/11/30 00:56:24;;;;;;;13.13;9.80;;;;;;;;;;5046103;28;20591;-58
2021/11/30 00:58:49;;;;;;;18.40;12.30;;;;;;;;;;5045539;28;20584;-58
2021/11/30 01:01:15;;;;;;;12.52;10.43;;;;;;;;;;5045803;28;20021;-58
2021/11/30 01:03:40;;;;;;;11.55;8.63;;;;;;;;;;5045168;28;20511;-58
2021/11/30 01:06:06;;;;;;;17.33;7.43;;;;;;;;;;5042204;28;20493;-58
2021/11/30 01:08:32;;;;;;;10.63;8.88;;;;;;;;;;5041910;28;20020;-58
2021/11/30 01:10:57;;;;;;;10.90;6.45;;;;;;;;;;5044379;28;20431;-59
2021/11/30 01:13:22;;;;;;;8.32;5.70;;;;;;;;;;5044941;28;20148;-58
2021/11/30 01:15:48;;;;;;;9.20;6.97;;;;;;;;;;5044832;28;20048;-58
2021/11/30 01:18:13;;;;;;;9.30;5.07;;;;;;;;;;5045583;28;20032;-58
2021/11/30 01:20:39;;;;;;;6.80;6.15;;;;;;;;;;5044829;28;20146;-58
2021/11/30 01:23:05;;;;;;;12.85;11.55;;;;;;;;;;5045326;28;20317;-58
2021/11/30 01:25:30;;;;;;;12.63;9.15;;;;;;;;;;5045898;28;20013;-59
2021/11/30 01:27:56;;;;;;;6.57;3.15;;;;;;;;;;5047710;28;20097;-58
2021/11/30 01:30:21;;;;;;;2.78;0.80;;;;;;;;;;5047650;28;20574;-58
2021/11/30 01:32:47;;;;;;;4.60;1.83;;;;;;;;;;5048902;28;20025;-58
2021/11/30 01:35:16;;;;;;;5.50;1.45;;;;;;;;;;5048620;28;20036;-58
2021/11/30 01:37:41;;;;;;;7.10;2.28;;;;;;;;;;5048894;28;20033;-58
2021/11/30 01:40:07;;;;;;;7.22;1.95;;;;;;;;;;5049134;28;20040;-59
2021/11/30 01:42:34;;;;;;;2.28;1.38;;;;;;;;;;5049164;28;20432;-58
2021/11/30 01:45:05;;;;;;;4.43;1.85;;;;;;;;;;5048285;28;20083;-59
2021/11/30 01:49:57;;;;;;;4.88;3.08;;;;;;;;;;5049651;28;20032;-58
2021/11/30 01:52:23;;;;;;;3.13;1.38;;;;;;;;;;5048288;28;20028;-58
2021/11/30 01:54:50;;;;;;;10.52;2.17;;;;;;;;;;5048526;28;20074;-59
2021/11/30 01:57:17;;;;;;;2.40;1.10;;;;;;;;;;5047276;28;20021;-58
2021/11/30 01:59:43;;;;;;;8.40;2.20;;;;;;;;;;5048959;28;20059;-59
2021/11/30 02:02:09;;;;;;;6.72;1.63;;;;;;;;;;5047753;28;20021;-59
2021/11/30 02:04:35;;;;;;;2.42;1.15;;;;;;;;;;5048778;28;20024;-58
2021/11/30 02:07:01;;;;;;;1.27;0.40;;;;;;;;;;5048809;28;20029;-59
2021/11/30 02:09:27;;;;;;;3.63;0.75;;;;;;;;;;5048177;28;20032;-58
2021/11/30 02:11:53;;;;;;;6.65;2.42;;;;;;;;;;5048034;28;20182;-58
2021/11/30 02:14:18;;;;;;;1.58;0.82;;;;;;;;;;5048942;28;20641;-59
2021/11/30 02:16:45;;;;;;;6.78;0.85;;;;;;;;;;5048690;28;20049;-58
2021/11/30 02:19:10;;;;;;;1.67;0.73;;;;;;;;;;5048685;28;20033;-58
2021/11/30 02:21:38;;;;;;;4.72;2.00;;;;;;;;;;5048092;28;20108;-59
2021/11/30 02:24:04;;;;;;;2.88;0.63;;;;;;;;;;5046444;28;20029;-58
2021/11/30 02:26:32;;;;;;;1.50;0.95;;;;;;;;;;5048014;28;20502;-59
2021/11/30 02:28:57;;;;;;;4.68;1.40;;;;;;;;;;5047730;28;20029;-59
2021/11/30 02:31:25;;;;;;;6.95;2.75;;;;;;;;;;5047870;28;20083;-58
2021/11/30 02:33:50;;;;;;;13.60;2.83;;;;;;;;;;5047895;28;20028;-58
2021/11/30 02:36:36;;;;;;;10.73;2.22;;;;;;;;;;5048358;28;20074;-59
2021/11/30 02:39:03;;;;;;;1.05;0.77;;;;;;;;;;5047705;28;20488;-59
2021/11/30 02:41:28;;;;;;;17.45;2.50;;;;;;;;;;5048216;28;20059;-58
2021/11/30 02:43:54;;;;;;;8.13;1.52;;;;;;;;;;5048407;28;20387;-57
2021/11/30 02:46:33;;;;;;;4.97;0.45;;;;;;;;;;5047950;28;20017;-58
2021/11/30 02:48:58;;;;;;;2.45;1.17;;;;;;;;;;5047626;28;20094;-57
2021/11/30 02:51:25;;;;;;;2.08;0.47;;;;;;;;;;5047730;28;20479;-58
2021/11/30 02:53:51;;;;;;;1.38;0.60;;;;;;;;;;5048227;28;20052;-58
2021/11/30 02:56:16;;;;;;;3.85;1.48;;;;;;;;;;5047892;28;20076;-58
2021/11/30 02:58:41;;;;;;;7.85;1.42;;;;;;;;;;5047611;28;20033;-58
2021/11/30 03:01:08;;;;;;;5.82;1.67;;;;;;;;;;5048004;28;20021;-58
2021/11/30 03:03:33;;;;;;;8.93;2.67;;;;;;;;;;5048066;28;20029;-58
2021/11/30 03:05:59;;;;;;;2.40;1.10;;;;;;;;;;5045497;28;20013;-58
2021/11/30 03:08:24;;;;;;;5.40;1.33;;;;;;;;;;5047612;28;20116;-58
2021/11/30 03:10:51;;;;;;;5.93;1.42;;;;;;;;;;5046452;28;20116;-58
2021/11/30 03:13:17;;;;;;;16.05;2.58;;;;;;;;;;5046725;28;20069;-58
2021/11/30 03:15:42;;;;;;;1.40;1.05;;;;;;;;;;5047224;28;20048;-58
2021/11/30 03:18:08;;;;;;;1.98;0.98;;;;;;;;;;5047531;28;20036;-58
2021/11/30 03:20:33;;;;;;;10.20;2.33;;;;;;;;;;5046194;28;20601;-58
2021/11/30 03:22:58;;;;;;;7.15;1.52;;;;;;;;;;5043604;28;20029;-58
2021/11/30 03:25:23;;;;;;;4.90;1.08;;;;;;;;;;5046448;28;20044;-58
2021/11/30 03:27:50;;;;;;;6.40;0.93;;;;;;;;;;5047250;28;20039;-58
2021/11/30 03:30:15;;;;;;;10.68;2.22;;;;;;;;;;5047504;28;20483;-58
2021/11/30 03:35:25;;;;;;;3.28;1.83;;;;;;;;;;5046859;28;20094;-58
2021/11/30 03:37:50;;;;;;;3.45;0.88;;;;;;;;;;5047745;28;20028;-58
2021/11/30 03:40:15;;;;;;;4.88;1.60;;;;;;;;;;5046792;28;20040;-58
2021/11/30 03:42:41;;;;;;;3.72;1.25;;;;;;;;;;5047201;28;20517;-58
2021/11/30 03:45:06;;;;;;;7.20;1.83;;;;;;;;;;5047271;28;20025;-58
2021/11/30 03:47:32;;;;;;;7.95;1.83;;;;;;;;;;5046958;28;20017;-58
2021/11/30 03:49:57;;;;;;;3.35;1.50;;;;;;;;;;5047044;28;20024;-58
2021/11/30 03:52:22;;;;;;;2.72;1.17;;;;;;;;;;5046049;28;20047;-58
2021/11/30 03:54:48;;;;;;;1.35;0.50;;;;;;;;;;5047034;28;20029;-58
2021/11/30 03:57:13;;;;;;;14.40;2.08;;;;;;;;;;5047280;28;20025;-58
2021/11/30 03:59:38;;;;;;;6.28;0.60;;;;;;;;;;5046987;28;20111;-58
2021/11/30 04:02:04;;;;;;;17.30;1.65;;;;;;;;;;5046391;28;20021;-58
2021/11/30 04:04:33;;;;;;;1.98;0.40;;;;;;;;;;5046427;28;20062;-58
2021/11/30 04:06:59;;;;;;;0.90;0.50;;;;;;;;;;5046673;28;20622;-58
2021/11/30 04:09:25;;;;;;;4.32;0.75;;;;;;;;;;5046560;28;20032;-58
2021/11/30 04:11:50;;;;;;;9.18;1.75;;;;;;;;;;5046301;28;20029;-58
2021/11/30 04:14:16;;;;;;;14.32;1.77;;;;;;;;;;5047132;28;20056;-58
2021/11/30 04:16:42;;;;;;;2.42;1.33;;;;;;;;;;5043583;28;20678;-59
2021/11/30 04:19:07;;;;;;;2.08;1.20;;;;;;;;;;5046052;28;20029;-58
2021/11/30 04:21:32;;;;;;;1.70;0.75;;;;;;;;;;5045868;28;20112;-58
2021/11/30 04:23:58;;;;;;;3.80;1.33;;;;;;;;;;5046219;28;20085;-58
2021/11/30 04:26:23;;;;;;;8.45;1.42;;;;;;;;;;5046168;28;20064;-58
2021/11/30 04:28:49;;;;;;;1.85;0.90;;;;;;;;;;5046003;28;20028;-58
2021/11/30 04:31:14;;;;;;;2.00;1.05;;;;;;;;;;5045263;28;20036;-58
2021/11/30 04:33:40;;;;;;;2.30;1.50;;;;;;;;;;5046495;28;20384;-58
2021/11/30 04:36:06;;;;;;;3.33;1.38;;;;;;;;;;5045545;28;20028;-58
2021/11/30 04:38:32;;;;;;;7.43;2.58;;;;;;;;;;5045561;28;20029;-58
2021/11/30 04:40:57;;;;;;;8.82;2.67;;;;;;;;;;5045518;28;20023;-58
2021/11/30 04:43:24;;;;;;;3.35;1.45;;;;;;;;;;5046105;28;20277;-57
2021/11/30 04:48:15;;;;;;;4.32;1.80;;;;;;;;;;5046291;28;20017;-58
2021/11/30 04:50:44;;;;;;;8.13;2.10;;;;;;;;;;5046335;28;20025;-58
2021/11/30 04:53:10;;;;;;;3.15;1.58;;;;;;;;;;5046233;28;20051;-58
2021/11/30 04:55:35;;;;;;;14.55;2.08;;;;;;;;;;5045946;28;20021;-58
2021/11/30 04:58:02;;;;;;;4.32;1.70;;;;;;;;;;5045815;28;20060;-58
2021/11/30 05:00:28;;;;;;;5.97;1.98;;;;;;;;;;5046088;28;20017;-58
2021/11/30 05:02:53;;;;;;;8.30;1.70;;;;;;;;;;5049852;28;20040;-58
2021/11/30 05:05:19;;;;;;;11.88;3.53;;;;;;;;;;5052628;28;20017;-58
2021/11/30 05:07:45;;;;;;;3.78;1.33;;;;;;;;;;5052874;28;20021;-58
2021/11/30 05:10:13;;;;;;;5.93;1.73;;;;;;;;;;5052565;28;20036;-58
2021/11/30 05:12:38;;;;;;;4.75;1.98;;;;;;;;;;5052192;28;20047;-58
2021/11/30 05:15:03;;;;;;;1.73;1.10;;;;;;;;;;5052236;28;20496;-58
2021/11/30 05:17:29;;;;;;;4.20;1.42;;;;;;;;;;5051941;28;20082;-58
2021/11/30 05:19:54;;;;;;;5.80;2.88;;;;;;;;;;5052575;28;20086;-58
2021/11/30 05:22:20;;;;;;;3.10;1.83;;;;;;;;;;5050716;28;20439;-58
2021/11/30 05:24:45;;;;;;;2.67;1.00;;;;;;;;;;5052163;28;20027;-58
2021/11/30 05:27:11;;;;;;;8.30;3.63;;;;;;;;;;5049897;28;20021;-58
2021/11/30 05:29:36;;;;;;;6.32;3.40;;;;;;;;;;5052199;28;20512;-58
2021/11/30 05:32:02;;;;;;;9.18;3.05;;;;;;;;;;5052159;28;20037;-58
2021/11/30 05:34:27;;;;;;;3.35;1.85;;;;;;;;;;5051820;28;20032;-58
2021/11/30 05:36:53;;;;;;;1.95;1.13;;;;;;;;;;5052552;28;20085;-58
2021/11/30 05:39:18;;;;;;;3.13;1.73;;;;;;;;;;5051948;28;20551;-58
2021/11/30 05:41:44;;;;;;;39.53;33.28;;;;;;;;;;5051875;28;20056;-58
2021/11/30 05:44:09;;;;;;;7.85;5.82;;;;;;;;;;5052316;28;20504;-58
2021/11/30 05:46:36;;;;;;;4.85;1.73;;;;;;;;;;5051623;28;20412;-58
2021/11/30 05:49:03;;;;;;;9.65;2.78;;;;;;;;;;5052052;28;20051;-58
2021/11/30 05:51:28;;;;;;;6.88;1.30;;;;;;;;;;5032952;28;20974;-57
2021/11/30 05:53:53;;;;;;;3.60;1.40;;;;;;;;;;5051212;28;20021;-58
2021/11/30 05:56:19;;;;;;;13.07;3.25;;;;;;;;;;5051572;28;20566;-58
2021/11/30 05:58:45;;;;;;;12.45;1.48;;;;;;;;;;5033976;28;20033;-58
2021/11/30 06:01:20;;;;;;;1.90;0.77;;;;;;;;;;5052133;28;20021;-58
2021/11/30 06:06:11;;;;;;;11.10;2.22;;;;;;;;;;5052406;28;20039;-58
2021/11/30 06:08:36;;;;;;;5.57;1.70;;;;;;;;;;5052298;28;20124;-59
2021/11/30 06:11:01;;;;;;;4.68;1.75;;;;;;;;;;5051528;28;20411;-58
2021/11/30 06:13:27;;;;;;;4.38;1.83;;;;;;;;;;5050036;28;20032;-58
2021/11/30 06:15:52;;;;;;;11.57;3.42;;;;;;;;;;5048419;28;20057;-59
2021/11/30 06:18:17;;;;;;;8.35;4.88;;;;;;;;;;5047206;28;20021;-58
2021/11/30 06:20:43;;;;;;;9.35;4.35;;;;;;;;;;5048141;28;20024;-58
2021/11/30 06:23:08;;;;;;;12.30;5.43;;;;;;;;;;5048239;28;20040;-59
2021/11/30 06:25:33;;;;;;;14.30;8.93;;;;;;;;;;5048263;28;20487;-58
2021/11/30 06:27:59;;;;;;;13.57;6.70;;;;;;;;;;5030266;28;20035;-59
2021/11/30 06:30:24;;;;;;;21.40;6.75;;;;;;;;;;5048168;28;20337;-58
2021/11/30 06:32:50;;;;;;;7.65;4.88;;;;;;;;;;5048246;28;20112;-58
2021/11/30 06:35:15;;;;;;;11.55;5.38;;;;;;;;;;5048537;28;20025;-58
2021/11/30 06:37:41;;;;;;;6.78;3.47;;;;;;;;;;5048305;28;20439;-58
2021/11/30 06:40:06;;;;;;;5.13;1.95;;;;;;;;;;5029265;28;20033;-59
2021/11/30 06:42:32;;;;;;;7.75;3.53;;;;;;;;;;5048374;28;20013;-58
2021/11/30 06:44:57;;;;;;;10.35;3.22;;;;;;;;;;5047992;28;20017;-58
2021/11/30 06:47:23;;;;;;;16.65;5.78;;;;;;;;;;5048118;28;20102;-58
2021/11/30 06:49:48;;;;;;;26.27;8.57;;;;;;;;;;5048151;28;20429;-58
2021/11/30 06:52:14;;;;;;;34.65;10.23;;;;;;;;;;5045361;28;20074;-58
2021/11/30 06:54:51;;;;;;;21.15;8.50;;;;;;;;;;5048332;28;20487;-58
2021/11/30 06:57:17;;;;;;;14.05;8.63;;;;;;;;;;5046330;28;20056;-58
2021/11/30 06:59:43;;;;;;;40.75;14.10;;;;;;;;;;5046269;28;20017;-58
2021/11/30 07:02:09;;;;;;;31.45;9.02;;;;;;;;;;5048012;28;20028;-59
2021/11/30 07:04:38;;;;;;;11.23;6.75;;;;;;;;;;5046118;28;20025;-58
2021/11/30 07:09:57;;;;;;;13.52;8.38;;;;;;;;;;5046370;28;20072;-57
2021/11/30 07:14:51;;;;;;;10.25;8.52;;;;;;;;;;5046920;28;20079;-59
2021/11/30 07:17:17;;;;;;;21.75;10.20;;;;;;;;;;5047469;28;20711;-59
2021/11/30 07:19:43;;;;;;;18.65;10.93;;;;;;;;;;5046727;28;20021;-59
2021/11/30 07:22:08;;;;;;;25.02;16.10;;;;;;;;;;5047960;28;20405;-58
2021/11/30 07:24:33;;;;;;;11.98;10.43;;;;;;;;;;5047860;28;20040;-60
2021/11/30 07:26:58;;;;;;;26.67;16.50;;;;;;;;;;5047509;28;20439;-60
2021/11/30 07:29:24;;;;;;;27.35;17.92;;;;;;;;;;5047047;28;20036;-61
2021/11/30 07:31:50;;;;;;;23.55;17.05;;;;;;;;;;5046307;28;20425;-61
2021/11/30 07:34:16;;;;;;;30.77;19.17;;;;;;;;;;5045556;28;20477;-61
2021/11/30 07:36:42;;;;;;;24.13;15.73;;;;;;;;;;5046116;28;20025;-62
2021/11/30 07:39:07;;;;;;;22.75;10.13;;;;;;;;;;5045699;28;20507;-61
2021/11/30 07:41:35;;;;;;;13.13;8.85;;;;;;;;;;5045874;28;20100;-61
2021/11/30 07:44:00;;;;;;;9.77;8.05;;;;;;;;;;5028930;28;20383;-61
2021/11/30 07:46:26;;;;;;;12.63;9.82;;;;;;;;;;5028568;28;20017;-62
2021/11/30 07:48:51;;;;;;;30.98;17.20;;;;;;;;;;5044592;28;20029;-61
2021/11/30 07:51:17;;;;;;;32.95;14.75;;;;;;;;;;5044349;28;20337;-60
2021/11/30 07:53:43;;;;;;;17.48;12.10;;;;;;;;;;5046579;28;20081;-61
2021/11/30 07:56:09;;;;;;;34.08;16.75;;;;;;;;;;5043965;28;20025;-61
2021/11/30 07:58:35;;;;;;;27.75;18.60;;;;;;;;;;5045034;28;20583;-60
2021/11/30 08:01:00;;;;;;;24.90;17.90;;;;;;;;;;5045069;28;20036;-49
2021/11/30 08:03:25;;;;;;;41.75;23.58;;;;;;;;;;5045348;28;20021;-49
2021/11/30 08:05:51;;;;;;;29.67;25.20;;;;;;;;;;5045327;28;20021;-53
2021/11/30 08:08:16;;;;;;;41.63;29.48;;;;;;;;;;5044964;28;20399;-55
2021/11/30 08:10:42;;;;;;;44.28;32.38;;;;;;;;;;5045238;28;20472;-52
2021/11/30 08:13:07;;;;;;;51.08;36.55;;;;;;;;;;5043686;28;20013;-50
2021/11/30 08:15:34;;;;;;;49.60;42.30;;;;;;;;;;5045789;28;20048;-50
2021/11/30 08:18:00;;;;;;;50.15;39.72;;;;;;;;;;5046177;28;20017;-51
2021/11/30 08:20:26;;;;;;;55.67;40.25;;;;;;;;;;5044403;28;20543;-46
2021/11/30 08:22:51;;;;;;;60.00;40.00;;;;;;;;;;5045140;28;20090;-44
2021/11/30 08:25:17;;;;;;;42.45;37.58;;;;;;;;;;5043180;28;20098;-49
2021/11/30 08:27:42;;;;;;;44.83;38.22;;;;;;;;;;5044209;28;20114;-49
2021/11/30 08:30:08;;;;;;;51.65;36.15;;;;;;;;;;5046384;28;20139;-49
2021/11/30 08:32:35;;;;;;;36.63;31.88;;;;;;;;;;5045688;28;20031;-47
2021/11/30 08:35:01;;;;;;;32.03;23.30;;;;;;;;;;5044377;28;20110;-45
2021/11/30 08:37:26;;;;;;;39.35;28.80;;;;;;;;;;5044663;28;20094;-48
2021/11/30 08:39:52;;;;;;;30.77;24.45;;;;;;;;;;5045075;28;20073;-45
2021/11/30 08:42:19;;;;;;;18.95;17.02;;;;;;;;;;5045743;28;20102;-48
2021/11/30 08:44:44;;;;;;;77.70;36.72;;;;;;;;;;5045161;28;20080;-51
2021/11/30 08:47:11;;;;;;;34.38;21.98;;;;;;;;;;5044547;28;20021;-47
2021/11/30 08:49:36;;;;;;;36.97;23.58;;;;;;;;;;5043333;28;20021;-44
2021/11/30 08:52:02;;;;;;;28.02;20.45;;;;;;;;;;5045193;28;20087;-47
2021/11/30 08:54:28;;;;;;;68.00;58.25;;;;;;;;;;5043869;28;20032;-49
2021/11/30 08:56:54;;;;;;;53.13;35.67;;;;;;;;;;5044692;28;20561;-46
2021/11/30 08:59:20;;;;;;;44.55;36.97;;;;;;;;;;5043138;28;20071;-48
2021/11/30 09:01:46;;;;;;;45.65;40.75;;;;;;;;;;5040060;28;20022;-43
2021/11/30 09:04:11;;;;;;;72.68;63.55;;;;;;;;;;5045435;28;20043;-46
2021/11/30 09:06:37;;;;;;;47.55;42.67;;;;;;;;;;5041412;28;20124;-47
2021/11/30 09:09:04;;;;;;;47.40;39.67;;;;;;;;;;5044722;28;20025;-45
2021/11/30 09:11:29;;;;;;;53.58;40.88;;;;;;;;;;5041826;28;20365;-47
2021/11/30 09:13:54;;;;;;;43.08;35.17;;;;;;;;;;5044157;28;20029;-49
2021/11/30 09:16:21;;;;;;;44.67;30.67;;;;;;;;;;5041973;28;20397;-48
2021/11/30 09:18:47;;;;;;;35.05;28.40;;;;;;;;;;5044993;28;20095;-52
2021/11/30 09:21:12;;;;;;;34.95;24.63;;;;;;;;;;5042725;28;20021;-49
2021/11/30 09:23:38;;;;;;;37.13;27.13;;;;;;;;;;5042546;28;20017;-49
2021/11/30 09:26:03;;;;;;;35.13;23.30;;;;;;;;;;5043331;28;20421;-47
2021/11/30 09:28:28;;;;;;;24.75;19.38;;;;;;;;;;5043437;28;20479;-48
2021/11/30 09:30:54;;;;;;;20.85;18.30;;;;;;;;;;5042814;28;20103;-47
2021/11/30 09:33:19;;;;;;;22.58;19.83;;;;;;;;;;5042905;28;20021;-46
2021/11/30 09:35:45;;;;;;;37.08;26.40;;;;;;;;;;5043290;28;20024;-51
2021/11/30 09:38:10;;;;;;;37.00;25.02;;;;;;;;;;5042990;28;20479;-48
2021/11/30 09:40:37;;;;;;;45.08;36.42;;;;;;;;;;5042905;28;20029;-47
2021/11/30 09:43:02;;;;;;;56.10;39.15;;;;;;;;;;5045199;28;20025;-50
2021/11/30 09:45:28;;;;;;;56.92;44.08;;;;;;;;;;5045212;28;20099;-50
2021/11/30 09:47:53;;;;;;;56.63;45.67;;;;;;;;;;5044265;28;20055;-48
2021/11/30 09:50:20;;;;;;;56.42;49.13;;;;;;;;;;5047680;28;20013;-49
2021/11/30 09:52:47;;;;;;;57.55;48.33;;;;;;;;;;5049285;28;20524;-47
2021/11/30 09:55:14;;;;;;;88.25;50.33;;;;;;;;;;5047907;28;20112;-46
2021/11/30 09:57:40;;;;;;;43.10;34.22;;;;;;;;;;5049224;28;20025;-48
2021/11/30 10:00:08;;;;;;;10.45;6.43;;;;;;;;;;5048276;28;20013;-49
2021/11/30 10:02:33;;;;;;;3.53;2.08;;;;;;;;;;5048286;28;20021;-49
2021/11/30 10:04:59;;;;;;;9.98;2.88;;;;;;;;;;5048080;28;20129;-47
2021/11/30 10:07:39;;;;;;;9.77;6.28;;;;;;;;;;5048219;28;20029;-49
2021/11/30 10:10:24;;;;;;;3.50;2.83;;;;;;;;;;5046938;28;20021;-50
2021/11/30 10:12:54;;;;;;;11.90;3.92;;;;;;;;;;5047712;28;20029;-49
2021/11/30 10:15:20;;;;;;;21.45;10.38;;;;;;;;;;5047395;28;20038;-49
2021/11/30 10:17:45;;;;;;;9.13;5.63;;;;;;;;;;5046245;28;20043;-53
2021/11/30 10:20:13;;;;;;;17.45;6.63;;;;;;;;;;5048340;28;20031;-50
2021/11/30 10:22:51;;;;;;;10.27;5.45;;;;;;;;;;5046716;28;20036;-52
2021/11/30 10:25:16;;;;;;;11.02;3.58;;;;;;;;;;5040990;28;20099;-51
2021/11/30 10:27:49;;;;;;;7.90;3.40;;;;;;;;;;5047552;28;20740;-55
2021/11/30 10:30:25;;;;;;;9.93;5.43;;;;;;;;;;5045995;28;20029;-56
2021/11/30 10:32:51;;;;;;;17.42;7.55;;;;;;;;;;5047657;28;20032;-53
2021/11/30 10:35:18;;;;;;;10.45;7.55;;;;;;;;;;5044368;28;20029;-55
2021/11/30 10:37:44;;;;;;;19.40;7.28;;;;;;;;;;5048732;28;20017;-55
2021/11/30 10:40:11;;;;;;;7.50;4.63;;;;;;;;;;5046607;28;20021;-56
2021/11/30 10:42:43;;;;;;;18.20;3.90;;;;;;;;;;5047125;28;20028;-53
2021/11/30 10:45:08;;;;;;;16.40;6.15;;;;;;;;;;5046384;28;20079;-54
2021/11/30 10:47:36;;;;;;;14.15;7.13;;;;;;;;;;5046924;28;20024;-56
2021/11/30 10:50:11;;;;;;;6.47;4.32;;;;;;;;;;5045517;28;20017;-55
2021/11/30 10:52:40;;;;;;;8.50;2.50;;;;;;;;;;5046468;28;20391;-55
2021/11/30 10:55:14;;;;;;;10.35;5.38;;;;;;;;;;5027707;28;20032;-56
2021/11/30 10:57:40;;;;;;;8.57;4.53;;;;;;;;;;5046834;28;20071;-54
2021/11/30 11:00:11;;;;;;;20.33;5.40;;;;;;;;;;5047038;28;20036;-53
2021/11/30 11:02:49;;;;;;;16.02;7.50;;;;;;;;;;5047985;28;20013;-56
2021/11/30 11:05:18;;;;;;;8.73;3.33;;;;;;;;;;5046750;28;20031;-53
2021/11/30 11:08:19;;;;;;;6.15;5.15;;;;;;;;;;5047629;28;20013;-55
2021/11/30 11:10:45;;;;;;;7.00;5.30;;;;;;;;;;4995394;28;20032;-55
2021/11/30 11:13:18;;;;;;;6.97;3.33;;;;;;;;;;5038016;28;20064;-55
2021/11/30 11:15:43;;;;;;;7.82;4.90;;;;;;;;;;5046865;28;20519;-56
2021/11/30 11:18:23;;;;;;;10.05;3.58;;;;;;;;;;5047246;28;20029;-56
2021/11/30 11:20:49;;;;;;;17.17;5.90;;;;;;;;;;5046747;28;20331;-57
2021/11/30 11:23:24;;;;;;;8.32;3.72;;;;;;;;;;5046785;28;20035;-57
2021/11/30 11:25:53;;;;;;;5.40;3.38;;;;;;;;;;5045676;28;20043;-56
2021/11/30 11:28:19;;;;;;;5.72;3.95;;;;;;;;;;5047094;28;20070;-55
2021/11/30 11:30:44;;;;;;;7.50;4.03;;;;;;;;;;5047772;28;20029;-56
2021/11/30 11:33:10;;;;;;;22.08;5.88;;;;;;;;;;5046942;28;20009;-56
2021/11/30 11:35:37;;;;;;;7.68;4.50;;;;;;;;;;5046061;28;20044;-56
2021/11/30 11:38:02;;;;;;;12.25;5.65;;;;;;;;;;5046937;28;20021;-55
2021/11/30 11:40:28;;;;;;;13.90;5.05;;;;;;;;;;5046332;28;20051;-57
2021/11/30 11:42:57;;;;;;;10.40;5.78;;;;;;;;;;5047051;28;20029;-56
2021/11/30 11:45:23;;;;;;;9.48;4.50;;;;;;;;;;5045484;28;21645;-56
2021/11/30 11:47:49;;;;;;;9.20;4.75;;;;;;;;;;5045573;28;20017;-56
2021/11/30 11:50:14;;;;;;;5.32;3.55;;;;;;;;;;5046285;28;20095;-56
2021/11/30 11:52:41;;;;;;;18.92;4.18;;;;;;;;;;5044035;28;20060;-56
2021/11/30 11:55:17;;;;;;;9.88;3.35;;;;;;;;;;5045407;28;20039;-57
2021/11/30 11:58:02;;;;;;;7.28;3.55;;;;;;;;;;5032073;28;20056;-56
2021/11/30 12:00:32;;;;;;;11.05;4.90;;;;;;;;;;5039500;28;20032;-56
2021/11/30 12:02:59;;;;;;;9.95;4.45;;;;;;;;;;5042471;28;20020;-56
2021/11/30 12:05:49;;;;;;;13.88;8.80;;;;;;;;;;5042584;28;20035;-55
2021/11/30 12:08:32;;;;;;;9.88;5.03;;;;;;;;;;5042303;28;20658;-56
2021/11/30 12:10:59;;;;;;;19.83;8.77;;;;;;;;;;5042129;28;20561;-52
2021/11/30 12:13:26;;;;;;;35.08;9.13;;;;;;;;;;5042739;28;20029;-52
2021/11/30 12:15:54;;;;;;;20.73;8.00;;;;;;;;;;5042401;28;20680;-56
2021/11/30 12:18:40;;;;;;;9.32;4.97;;;;;;;;;;5043288;28;20025;-49
2021/11/30 12:21:15;;;;;;;12.20;6.78;;;;;;;;;;5042091;28;20021;-49
2021/11/30 12:23:42;;;;;;;22.23;8.23;;;;;;;;;;5042882;28;20023;-52
2021/11/30 12:26:25;;;;;;;12.05;7.07;;;;;;;;;;5043366;28;20459;-52
2021/11/30 12:28:51;;;;;;;29.33;10.90;;;;;;;;;;5042464;28;20032;-51
2021/11/30 12:31:28;;;;;;;19.42;10.90;;;;;;;;;;5043094;28;20478;-50
2021/11/30 12:33:53;;;;;;;15.90;5.68;;;;;;;;;;5044584;28;20056;-52
2021/11/30 12:36:25;;;;;;;36.88;21.70;;;;;;;;;;5043252;28;20059;-50
2021/11/30 12:38:51;;;;;;;19.48;10.20;;;;;;;;;;5043217;28;20025;-51
2021/11/30 12:41:22;;;;;;;20.10;7.40;;;;;;;;;;5043065;28;20845;-50
2021/11/30 12:43:48;;;;;;;;;;;;;;;;;;5042917;28;20583;-49
2021/11/30 12:46:18;;;;;;;17.35;6.53;;;;;;;;;;5043726;28;19916;-53
2021/11/30 12:48:44;;;;;;;12.13;5.35;;;;;;;;;;5042556;28;20496;-52
2021/11/30 12:51:28;;;;;;;10.25;6.28;;;;;;;;;;5041615;28;20036;-50
2021/11/30 12:53:58;;;;;;;8.07;4.55;;;;;;;;;;5015571;28;20071;-50
2021/11/30 12:56:43;;;;;;;6.75;4.60;;;;;;;;;;5042392;28;20104;-51
2021/11/30 12:59:08;;;;;;;8.38;4.50;;;;;;;;;;5042341;28;20108;-47
2021/11/30 13:01:33;;;;;;;14.48;8.15;;;;;;;;;;5043493;28;20310;-51
2021/11/30 13:04:17;;;;;;;11.25;5.47;;;;;;;;;;5043111;28;20025;-51
2021/11/30 13:07:01;;;;;;;10.10;5.93;;;;;;;;;;5043174;28;20056;-53
2021/11/30 13:09:43;;;;;;;23.65;5.93;;;;;;;;;;5042085;28;20021;-51
2021/11/30 13:12:12;;;;;;;12.95;9.05;;;;;;;;;;5041110;28;20028;-52
2021/11/30 13:14:38;;;;;;;10.18;7.82;;;;;;;;;;5041611;28;20025;-53
2021/11/30 13:17:04;;;;;;;14.20;9.85;;;;;;;;;;5040166;28;20044;-50
2021/11/30 13:19:31;;;;;;;15.25;11.02;;;;;;;;;;5041893;28;20518;-50
2021/11/30 13:21:58;;;;;;;14.35;12.13;;;;;;;;;;5041278;28;20515;-49
2021/11/30 13:24:31;;;;;;;29.77;10.02;;;;;;;;;;5044509;28;20467;-55
2021/11/30 13:27:07;;;;;;;12.13;9.75;;;;;;;;;;5041789;28;20071;-44
2021/11/30 13:29:33;;;;;;;19.35;8.30;;;;;;;;;;5046286;28;20029;-48
2021/11/30 13:31:59;;;;;;;10.32;6.93;;;;;;;;;;5045362;28;20280;-44
2021/11/30 13:34:25;;;;;;;12.73;8.65;;;;;;;;;;5045182;28;20071;-57
2021/11/30 13:36:50;;;;;;;14.63;7.50;;;;;;;;;;5045330;28;20060;-50
2021/11/30 13:39:15;;;;;;;26.02;10.98;;;;;;;;;;5045238;28;20416;-49
2021/11/30 13:41:41;;;;;;;20.08;8.10;;;;;;;;;;5042810;28;20032;-54
2021/11/30 13:44:06;;;;;;;17.05;6.60;;;;;;;;;;5044381;28;20025;-52
2021/11/30 13:46:36;;;;;;;8.48;5.85;;;;;;;;;;5042154;28;20075;-54
2021/11/30 13:49:03;;;;;;;6.70;4.38;;;;;;;;;;5046430;28;20037;-53
2021/11/30 13:51:28;;;;;;;5.00;3.38;;;;;;;;;;5046007;28;20039;-53
2021/11/30 13:54:00;;;;;;;10.00;3.65;;;;;;;;;;5045066;28;20064;-53
2021/11/30 13:56:29;;;;;;;9.65;4.10;;;;;;;;;;5045573;28;20060;-53
2021/11/30 13:59:10;;;;;;;6.97;3.42;;;;;;;;;;5038085;28;21013;-55
2021/11/30 14:04:09;;;;;;;8.65;3.97;;;;;;;;;;5040536;28;20039;-51
2021/11/30 14:06:35;;;;;;;5.43;3.83;;;;;;;;;;5043068;28;20021;-46
2021/11/30 14:09:08;;;;;;;5.43;3.47;;;;;;;;;;5041511;28;20021;-50
2021/11/30 14:11:35;;;;;;;7.38;3.92;;;;;;;;;;5043617;28;20025;-53
2021/11/30 14:14:01;;;;;;;14.85;3.97;;;;;;;;;;5045445;28;20017;-52
2021/11/30 14:16:26;;;;;;;10.27;4.85;;;;;;;;;;5043345;28;20156;-51
2021/11/30 14:18:59;;;;;;;7.15;4.78;;;;;;;;;;5040760;28;20029;-54
2021/11/30 14:21:28;;;;;;;13.70;5.63;;;;;;;;;;5042450;28;20032;-49
2021/11/30 14:24:07;;;;;;;10.45;6.22;;;;;;;;;;5040204;28;20029;-53
2021/11/30 14:26:34;;;;;;;11.20;5.22;;;;;;;;;;5040925;28;20021;-52
2021/11/30 14:29:01;;;;;;;7.75;5.43;;;;;;;;;;5042183;28;20019;-51
2021/11/30 14:31:26;;;;;;;20.45;7.22;;;;;;;;;;5041454;28;20032;-50
2021/11/30 14:33:51;;;;;;;8.35;5.00;;;;;;;;;;5044583;28;20021;-49
2021/11/30 14:36:23;;;;;;;9.13;6.32;;;;;;;;;;5043330;28;20029;-52
2021/11/30 14:38:49;;;;;;;10.98;6.90;;;;;;;;;;5039725;28;20020;-52
2021/11/30 14:41:15;;;;;;;7.18;6.35;;;;;;;;;;5041943;28;20025;-53
2021/11/30 14:43:41;;;;;;;22.77;14.30;;;;;;;;;;5043082;28;20031;-52
2021/11/30 14:46:07;;;;;;;14.93;7.95;;;;;;;;;;5044439;28;20032;-53
2021/11/30 14:48:35;;;;;;;14.35;9.63;;;;;;;;;;5040512;28;20025;-48
2021/11/30 14:51:11;;;;;;;13.57;9.25;;;;;;;;;;5043592;28;20013;-54